sensor_id;sensor_type;location;lat;lon;timestamp;P1;durP1;ratioP1;P2;durP2;ratioP2
62610;SDS011;48683;48.084;17.272;2023-11-19T00:01:00;14.07;;;9.80;;
62610;SDS011;48683;48.084;17.272;2023-11-19T00:03:26;14.25;;;9.55;;
62610;SDS011;48683;48.084;17.272;2023-11-19T00:05:51;11.65;;;9.18;;
62610;SDS011;48683;48.084;17.272;2023-11-19T00:08:16;13.85;;;10.45;;
62610;SDS011;48683;48.084;17.272;2023-11-19T00:10:42;15.50;;;10.60;;
62610;SDS011;48683;48.084;17.272;2023-11-19T00:13:07;16.30;;;10.20;;
62610;SDS011;48683;48.084;17.272;2023-11-19T00:15:33;13.85;;;9.30;;
62610;SDS011;48683;48.084;17.272;2023-11-19T00:17:58;15.93;;;9.93;;
62610;SDS011;48683;48.084;17.272;2023-11-19T00:20:23;11.65;;;9.45;;
62610;SDS011;48683;48.084;17.272;2023-11-19T00:22:49;16.00;;;9.88;;
62610;SDS011;48683;48.084;17.272;2023-11-19T00:25:17;31.58;;;19.10;;
62610;SDS011;48683;48.084;17.272;2023-11-19T00:27:44;38.88;;;22.27;;
62610;SDS011;48683;48.084;17.272;2023-11-19T00:30:09;39.05;;;21.65;;
62610;SDS011;48683;48.084;17.272;2023-11-19T00:32:35;33.30;;;19.33;;
62610;SDS011;48683;48.084;17.272;2023-11-19T00:35:03;35.80;;;20.27;;
62610;SDS011;48683;48.084;17.272;2023-11-19T00:37:29;33.37;;;17.50;;
62610;SDS011;48683;48.084;17.272;2023-11-19T00:39:55;21.52;;;13.00;;
62610;SDS011;48683;48.084;17.272;2023-11-19T00:42:21;29.25;;;15.48;;
62610;SDS011;48683;48.084;17.272;2023-11-19T00:44:47;31.15;;;15.75;;
62610;SDS011;48683;48.084;17.272;2023-11-19T00:47:12;23.25;;;12.82;;
62610;SDS011;48683;48.084;17.272;2023-11-19T00:49:38;17.85;;;11.90;;
62610;SDS011;48683;48.084;17.272;2023-11-19T00:52:03;20.42;;;12.15;;
62610;SDS011;48683;48.084;17.272;2023-11-19T00:54:28;17.77;;;11.45;;
62610;SDS011;48683;48.084;17.272;2023-11-19T00:56:54;16.92;;;11.60;;
62610;SDS011;48683;48.084;17.272;2023-11-19T00:59:20;15.48;;;11.15;;
62610;SDS011;48683;48.084;17.272;2023-11-19T01:01:45;20.05;;;11.75;;
62610;SDS011;48683;48.084;17.272;2023-11-19T01:04:13;20.30;;;12.32;;
62610;SDS011;48683;48.084;17.272;2023-11-19T01:06:38;20.33;;;13.10;;
62610;SDS011;48683;48.084;17.272;2023-11-19T01:09:04;19.63;;;12.57;;
62610;SDS011;48683;48.084;17.272;2023-11-19T01:11:29;20.92;;;12.57;;
62610;SDS011;48683;48.084;17.272;2023-11-19T01:13:54;21.63;;;13.27;;
62610;SDS011;48683;48.084;17.272;2023-11-19T01:16:20;20.73;;;12.90;;
62610;SDS011;48683;48.084;17.272;2023-11-19T01:18:49;18.00;;;12.15;;
62610;SDS011;48683;48.084;17.272;2023-11-19T01:21:15;16.55;;;11.52;;
62610;SDS011;48683;48.084;17.272;2023-11-19T01:23:41;18.95;;;11.23;;
62610;SDS011;48683;48.084;17.272;2023-11-19T01:26:08;16.67;;;11.70;;
62610;SDS011;48683;48.084;17.272;2023-11-19T01:28:35;17.10;;;12.43;;
62610;SDS011;48683;48.084;17.272;2023-11-19T01:31:01;17.67;;;12.25;;
62610;SDS011;48683;48.084;17.272;2023-11-19T01:33:26;18.30;;;12.45;;
62610;SDS011;48683;48.084;17.272;2023-11-19T01:35:53;17.13;;;11.20;;
62610;SDS011;48683;48.084;17.272;2023-11-19T01:38:18;15.60;;;10.13;;
62610;SDS011;48683;48.084;17.272;2023-11-19T01:40:43;13.93;;;10.38;;
62610;SDS011;48683;48.084;17.272;2023-11-19T01:43:09;12.38;;;9.45;;
62610;SDS011;48683;48.084;17.272;2023-11-19T01:45:36;12.98;;;9.88;;
62610;SDS011;48683;48.084;17.272;2023-11-19T01:48:03;13.60;;;9.45;;
62610;SDS011;48683;48.084;17.272;2023-11-19T01:50:29;14.40;;;9.55;;
62610;SDS011;48683;48.084;17.272;2023-11-19T01:52:55;11.40;;;8.00;;
62610;SDS011;48683;48.084;17.272;2023-11-19T01:55:25;12.10;;;8.95;;
62610;SDS011;48683;48.084;17.272;2023-11-19T01:57:55;11.35;;;9.43;;
62610;SDS011;48683;48.084;17.272;2023-11-19T02:00:26;12.25;;;8.80;;
62610;SDS011;48683;48.084;17.272;2023-11-19T02:02:51;13.73;;;9.93;;
62610;SDS011;48683;48.084;17.272;2023-11-19T02:05:17;11.15;;;8.80;;
62610;SDS011;48683;48.084;17.272;2023-11-19T02:07:43;12.13;;;9.02;;
62610;SDS011;48683;48.084;17.272;2023-11-19T02:10:08;14.13;;;9.90;;
62610;SDS011;48683;48.084;17.272;2023-11-19T02:12:39;13.18;;;10.65;;
62610;SDS011;48683;48.084;17.272;2023-11-19T02:15:08;13.15;;;9.88;;
62610;SDS011;48683;48.084;17.272;2023-11-19T02:17:34;13.30;;;9.55;;
62610;SDS011;48683;48.084;17.272;2023-11-19T02:20:02;14.98;;;10.65;;
62610;SDS011;48683;48.084;17.272;2023-11-19T02:22:28;15.32;;;11.05;;
62610;SDS011;48683;48.084;17.272;2023-11-19T02:24:54;12.70;;;9.60;;
62610;SDS011;48683;48.084;17.272;2023-11-19T02:27:30;15.65;;;10.13;;
62610;SDS011;48683;48.084;17.272;2023-11-19T02:30:30;15.43;;;10.30;;
62610;SDS011;48683;48.084;17.272;2023-11-19T02:32:57;12.68;;;8.68;;
62610;SDS011;48683;48.084;17.272;2023-11-19T02:35:30;11.85;;;9.07;;
62610;SDS011;48683;48.084;17.272;2023-11-19T02:37:56;12.20;;;9.03;;
62610;SDS011;48683;48.084;17.272;2023-11-19T02:40:22;13.20;;;9.18;;
62610;SDS011;48683;48.084;17.272;2023-11-19T02:42:54;11.82;;;8.88;;
62610;SDS011;48683;48.084;17.272;2023-11-19T02:45:20;12.20;;;9.50;;
62610;SDS011;48683;48.084;17.272;2023-11-19T02:47:50;13.52;;;9.48;;
62610;SDS011;48683;48.084;17.272;2023-11-19T02:50:16;11.65;;;9.05;;
62610;SDS011;48683;48.084;17.272;2023-11-19T02:52:50;12.95;;;10.30;;
62610;SDS011;48683;48.084;17.272;2023-11-19T02:55:16;22.33;;;16.25;;
62610;SDS011;48683;48.084;17.272;2023-11-19T02:57:43;32.90;;;21.67;;
62610;SDS011;48683;48.084;17.272;2023-11-19T03:00:14;24.10;;;17.63;;
62610;SDS011;48683;48.084;17.272;2023-11-19T03:02:43;14.30;;;10.20;;
62610;SDS011;48683;48.084;17.272;2023-11-19T03:05:11;11.38;;;9.05;;
62610;SDS011;48683;48.084;17.272;2023-11-19T03:07:37;21.83;;;15.95;;
62610;SDS011;48683;48.084;17.272;2023-11-19T03:10:02;15.95;;;11.75;;
62610;SDS011;48683;48.084;17.272;2023-11-19T03:12:30;13.85;;;10.23;;
62610;SDS011;48683;48.084;17.272;2023-11-19T03:14:57;15.07;;;10.25;;
62610;SDS011;48683;48.084;17.272;2023-11-19T03:17:22;13.32;;;9.77;;
62610;SDS011;48683;48.084;17.272;2023-11-19T03:19:49;14.05;;;10.02;;
62610;SDS011;48683;48.084;17.272;2023-11-19T03:22:14;14.23;;;9.77;;
62610;SDS011;48683;48.084;17.272;2023-11-19T03:24:40;15.95;;;10.85;;
62610;SDS011;48683;48.084;17.272;2023-11-19T03:27:05;16.27;;;10.65;;
62610;SDS011;48683;48.084;17.272;2023-11-19T03:29:30;16.88;;;10.65;;
62610;SDS011;48683;48.084;17.272;2023-11-19T03:31:56;16.08;;;11.55;;
62610;SDS011;48683;48.084;17.272;2023-11-19T03:34:21;14.85;;;10.32;;
62610;SDS011;48683;48.084;17.272;2023-11-19T03:36:46;38.65;;;21.45;;
62610;SDS011;48683;48.084;17.272;2023-11-19T03:39:12;49.47;;;27.17;;
62610;SDS011;48683;48.084;17.272;2023-11-19T03:41:37;22.50;;;13.68;;
62610;SDS011;48683;48.084;17.272;2023-11-19T03:44:03;14.40;;;9.52;;
62610;SDS011;48683;48.084;17.272;2023-11-19T03:46:28;16.10;;;9.77;;
62610;SDS011;48683;48.084;17.272;2023-11-19T03:48:54;16.13;;;10.45;;
62610;SDS011;48683;48.084;17.272;2023-11-19T03:51:20;64.05;;;28.38;;
62610;SDS011;48683;48.084;17.272;2023-11-19T03:53:45;24.55;;;14.85;;
62610;SDS011;48683;48.084;17.272;2023-11-19T03:56:11;16.40;;;10.23;;
62610;SDS011;48683;48.084;17.272;2023-11-19T03:58:37;13.68;;;9.65;;
62610;SDS011;48683;48.084;17.272;2023-11-19T04:01:03;15.35;;;9.55;;
62610;SDS011;48683;48.084;17.272;2023-11-19T04:03:29;12.50;;;9.37;;
62610;SDS011;48683;48.084;17.272;2023-11-19T04:05:54;15.25;;;9.93;;
62610;SDS011;48683;48.084;17.272;2023-11-19T04:08:21;13.53;;;9.80;;
62610;SDS011;48683;48.084;17.272;2023-11-19T04:10:46;13.35;;;9.57;;
62610;SDS011;48683;48.084;17.272;2023-11-19T04:13:12;13.90;;;9.60;;
62610;SDS011;48683;48.084;17.272;2023-11-19T04:15:37;13.60;;;10.55;;
62610;SDS011;48683;48.084;17.272;2023-11-19T04:18:03;15.07;;;9.95;;
62610;SDS011;48683;48.084;17.272;2023-11-19T04:20:28;15.15;;;9.90;;
62610;SDS011;48683;48.084;17.272;2023-11-19T04:22:53;14.43;;;9.65;;
62610;SDS011;48683;48.084;17.272;2023-11-19T04:25:19;12.60;;;8.85;;
62610;SDS011;48683;48.084;17.272;2023-11-19T04:27:44;14.48;;;11.25;;
62610;SDS011;48683;48.084;17.272;2023-11-19T04:30:10;16.30;;;12.18;;
62610;SDS011;48683;48.084;17.272;2023-11-19T04:32:36;13.18;;;10.32;;
62610;SDS011;48683;48.084;17.272;2023-11-19T04:35:02;13.65;;;10.52;;
62610;SDS011;48683;48.084;17.272;2023-11-19T04:37:27;11.18;;;9.38;;
62610;SDS011;48683;48.084;17.272;2023-11-19T04:39:53;12.23;;;9.43;;
62610;SDS011;48683;48.084;17.272;2023-11-19T04:42:18;12.80;;;9.27;;
62610;SDS011;48683;48.084;17.272;2023-11-19T04:44:44;12.48;;;9.15;;
62610;SDS011;48683;48.084;17.272;2023-11-19T04:47:10;55.38;;;29.10;;
62610;SDS011;48683;48.084;17.272;2023-11-19T04:49:39;80.30;;;38.92;;
62610;SDS011;48683;48.084;17.272;2023-11-19T04:52:07;40.97;;;21.50;;
62610;SDS011;48683;48.084;17.272;2023-11-19T04:54:33;24.48;;;14.35;;
62610;SDS011;48683;48.084;17.272;2023-11-19T04:56:58;75.45;;;32.08;;
62610;SDS011;48683;48.084;17.272;2023-11-19T04:59:24;85.55;;;33.03;;
62610;SDS011;48683;48.084;17.272;2023-11-19T05:01:49;128.95;;;46.50;;
62610;SDS011;48683;48.084;17.272;2023-11-19T05:04:15;83.57;;;32.13;;
62610;SDS011;48683;48.084;17.272;2023-11-19T05:06:41;80.25;;;32.45;;
62610;SDS011;48683;48.084;17.272;2023-11-19T05:09:06;101.00;;;41.97;;
62610;SDS011;48683;48.084;17.272;2023-11-19T05:11:37;132.60;;;50.65;;
62610;SDS011;48683;48.084;17.272;2023-11-19T05:14:03;140.80;;;53.47;;
62610;SDS011;48683;48.084;17.272;2023-11-19T05:16:29;95.55;;;39.15;;
62610;SDS011;48683;48.084;17.272;2023-11-19T05:18:54;101.88;;;42.42;;
62610;SDS011;48683;48.084;17.272;2023-11-19T05:21:19;115.35;;;49.03;;
62610;SDS011;48683;48.084;17.272;2023-11-19T05:23:45;94.82;;;40.03;;
62610;SDS011;48683;48.084;17.272;2023-11-19T05:26:18;107.95;;;46.15;;
62610;SDS011;48683;48.084;17.272;2023-11-19T05:28:44;61.67;;;29.10;;
62610;SDS011;48683;48.084;17.272;2023-11-19T05:31:10;28.00;;;15.90;;
62610;SDS011;48683;48.084;17.272;2023-11-19T05:33:35;16.95;;;9.35;;
62610;SDS011;48683;48.084;17.272;2023-11-19T05:36:01;12.43;;;8.77;;
62610;SDS011;48683;48.084;17.272;2023-11-19T05:38:28;11.23;;;8.07;;
62610;SDS011;48683;48.084;17.272;2023-11-19T05:40:54;9.93;;;7.43;;
62610;SDS011;48683;48.084;17.272;2023-11-19T05:43:19;9.20;;;7.40;;
62610;SDS011;48683;48.084;17.272;2023-11-19T05:45:45;9.25;;;6.97;;
62610;SDS011;48683;48.084;17.272;2023-11-19T05:48:10;10.85;;;7.60;;
62610;SDS011;48683;48.084;17.272;2023-11-19T05:50:35;8.55;;;7.00;;
62610;SDS011;48683;48.084;17.272;2023-11-19T05:53:01;9.07;;;7.25;;
62610;SDS011;48683;48.084;17.272;2023-11-19T05:55:26;11.07;;;7.45;;
62610;SDS011;48683;48.084;17.272;2023-11-19T05:57:53;9.43;;;6.88;;
62610;SDS011;48683;48.084;17.272;2023-11-19T06:00:18;11.43;;;7.82;;
62610;SDS011;48683;48.084;17.272;2023-11-19T06:02:43;10.05;;;7.60;;
62610;SDS011;48683;48.084;17.272;2023-11-19T06:05:09;11.30;;;7.13;;
62610;SDS011;48683;48.084;17.272;2023-11-19T06:07:34;10.75;;;7.35;;
62610;SDS011;48683;48.084;17.272;2023-11-19T06:10:01;9.13;;;6.97;;
62610;SDS011;48683;48.084;17.272;2023-11-19T06:12:27;10.48;;;7.65;;
62610;SDS011;48683;48.084;17.272;2023-11-19T06:14:53;9.52;;;6.93;;
62610;SDS011;48683;48.084;17.272;2023-11-19T06:17:18;8.82;;;7.03;;
62610;SDS011;48683;48.084;17.272;2023-11-19T06:19:43;9.57;;;7.35;;
62610;SDS011;48683;48.084;17.272;2023-11-19T06:22:10;8.60;;;6.78;;
62610;SDS011;48683;48.084;17.272;2023-11-19T06:24:35;10.10;;;7.55;;
62610;SDS011;48683;48.084;17.272;2023-11-19T06:27:01;11.63;;;8.05;;
62610;SDS011;48683;48.084;17.272;2023-11-19T06:29:27;10.05;;;7.20;;
62610;SDS011;48683;48.084;17.272;2023-11-19T06:31:53;12.57;;;7.22;;
62610;SDS011;48683;48.084;17.272;2023-11-19T06:34:18;11.18;;;7.82;;
62610;SDS011;48683;48.084;17.272;2023-11-19T06:36:43;9.60;;;7.22;;
62610;SDS011;48683;48.084;17.272;2023-11-19T06:39:09;11.20;;;7.80;;
62610;SDS011;48683;48.084;17.272;2023-11-19T06:41:35;11.88;;;7.80;;
62610;SDS011;48683;48.084;17.272;2023-11-19T06:44:02;11.18;;;7.97;;
62610;SDS011;48683;48.084;17.272;2023-11-19T06:46:29;9.85;;;7.30;;
62610;SDS011;48683;48.084;17.272;2023-11-19T06:48:55;11.20;;;7.35;;
62610;SDS011;48683;48.084;17.272;2023-11-19T06:51:20;9.20;;;7.18;;
62610;SDS011;48683;48.084;17.272;2023-11-19T06:53:45;12.00;;;8.45;;
62610;SDS011;48683;48.084;17.272;2023-11-19T06:56:17;10.65;;;7.68;;
62610;SDS011;48683;48.084;17.272;2023-11-19T06:58:44;9.48;;;7.32;;
62610;SDS011;48683;48.084;17.272;2023-11-19T07:01:09;9.32;;;7.47;;
62610;SDS011;48683;48.084;17.272;2023-11-19T07:03:35;11.18;;;7.88;;
62610;SDS011;48683;48.084;17.272;2023-11-19T07:06:00;9.02;;;7.07;;
62610;SDS011;48683;48.084;17.272;2023-11-19T07:08:25;12.45;;;7.47;;
62610;SDS011;48683;48.084;17.272;2023-11-19T07:10:51;8.07;;;6.95;;
62610;SDS011;48683;48.084;17.272;2023-11-19T07:13:17;9.40;;;7.65;;
62610;SDS011;48683;48.084;17.272;2023-11-19T07:15:42;10.63;;;8.30;;
62610;SDS011;48683;48.084;17.272;2023-11-19T07:18:08;9.82;;;7.25;;
62610;SDS011;48683;48.084;17.272;2023-11-19T07:20:33;10.95;;;7.60;;
62610;SDS011;48683;48.084;17.272;2023-11-19T07:22:58;10.85;;;7.65;;
62610;SDS011;48683;48.084;17.272;2023-11-19T07:25:24;11.98;;;7.97;;
62610;SDS011;48683;48.084;17.272;2023-11-19T07:27:49;9.88;;;8.00;;
62610;SDS011;48683;48.084;17.272;2023-11-19T07:30:17;8.45;;;7.03;;
62610;SDS011;48683;48.084;17.272;2023-11-19T07:32:42;10.25;;;8.50;;
62610;SDS011;48683;48.084;17.272;2023-11-19T07:35:08;8.95;;;7.40;;
62610;SDS011;48683;48.084;17.272;2023-11-19T07:37:34;10.55;;;7.35;;
62610;SDS011;48683;48.084;17.272;2023-11-19T07:39:59;9.25;;;7.32;;
62610;SDS011;48683;48.084;17.272;2023-11-19T07:42:24;8.63;;;7.40;;
62610;SDS011;48683;48.084;17.272;2023-11-19T07:44:50;10.75;;;8.13;;
62610;SDS011;48683;48.084;17.272;2023-11-19T07:47:15;8.85;;;7.10;;
62610;SDS011;48683;48.084;17.272;2023-11-19T07:49:40;8.75;;;6.97;;
62610;SDS011;48683;48.084;17.272;2023-11-19T07:52:08;10.55;;;8.02;;
62610;SDS011;48683;48.084;17.272;2023-11-19T07:54:34;13.75;;;8.13;;
62610;SDS011;48683;48.084;17.272;2023-11-19T07:56:59;9.82;;;7.45;;
62610;SDS011;48683;48.084;17.272;2023-11-19T07:59:24;10.38;;;8.10;;
62610;SDS011;48683;48.084;17.272;2023-11-19T08:01:50;11.05;;;8.02;;
62610;SDS011;48683;48.084;17.272;2023-11-19T08:04:15;12.15;;;8.73;;
62610;SDS011;48683;48.084;17.272;2023-11-19T08:06:40;11.93;;;8.65;;
62610;SDS011;48683;48.084;17.272;2023-11-19T08:09:06;11.90;;;8.65;;
62610;SDS011;48683;48.084;17.272;2023-11-19T08:11:31;11.30;;;8.23;;
62610;SDS011;48683;48.084;17.272;2023-11-19T08:13:57;11.00;;;8.25;;
62610;SDS011;48683;48.084;17.272;2023-11-19T08:16:22;13.07;;;8.75;;
62610;SDS011;48683;48.084;17.272;2023-11-19T08:18:48;12.65;;;8.95;;
62610;SDS011;48683;48.084;17.272;2023-11-19T08:21:13;11.82;;;8.38;;
62610;SDS011;48683;48.084;17.272;2023-11-19T08:23:40;10.83;;;8.60;;
62610;SDS011;48683;48.084;17.272;2023-11-19T08:26:05;13.05;;;8.95;;
62610;SDS011;48683;48.084;17.272;2023-11-19T08:28:31;13.90;;;8.70;;
62610;SDS011;48683;48.084;17.272;2023-11-19T08:30:56;10.43;;;8.10;;
62610;SDS011;48683;48.084;17.272;2023-11-19T08:33:22;10.10;;;7.63;;
62610;SDS011;48683;48.084;17.272;2023-11-19T08:35:47;10.23;;;7.78;;
62610;SDS011;48683;48.084;17.272;2023-11-19T08:38:13;11.23;;;7.82;;
62610;SDS011;48683;48.084;17.272;2023-11-19T08:40:38;10.70;;;8.23;;
62610;SDS011;48683;48.084;17.272;2023-11-19T08:43:04;10.93;;;7.75;;
62610;SDS011;48683;48.084;17.272;2023-11-19T08:45:29;10.27;;;7.13;;
62610;SDS011;48683;48.084;17.272;2023-11-19T08:47:56;11.95;;;7.82;;
62610;SDS011;48683;48.084;17.272;2023-11-19T08:50:21;10.32;;;8.00;;
62610;SDS011;48683;48.084;17.272;2023-11-19T08:52:47;11.43;;;8.50;;
62610;SDS011;48683;48.084;17.272;2023-11-19T08:55:13;9.95;;;7.53;;
62610;SDS011;48683;48.084;17.272;2023-11-19T08:57:38;12.52;;;8.07;;
62610;SDS011;48683;48.084;17.272;2023-11-19T09:00:04;10.73;;;7.47;;
62610;SDS011;48683;48.084;17.272;2023-11-19T09:02:34;9.10;;;7.70;;
62610;SDS011;48683;48.084;17.272;2023-11-19T09:05:02;9.98;;;7.47;;
62610;SDS011;48683;48.084;17.272;2023-11-19T09:07:27;9.77;;;7.35;;
62610;SDS011;48683;48.084;17.272;2023-11-19T09:09:52;9.88;;;7.85;;
62610;SDS011;48683;48.084;17.272;2023-11-19T09:12:18;8.90;;;7.20;;
62610;SDS011;48683;48.084;17.272;2023-11-19T09:14:43;12.75;;;8.00;;
62610;SDS011;48683;48.084;17.272;2023-11-19T09:17:08;9.27;;;7.88;;
62610;SDS011;48683;48.084;17.272;2023-11-19T09:19:35;9.70;;;8.00;;
62610;SDS011;48683;48.084;17.272;2023-11-19T09:22:01;10.50;;;8.52;;
62610;SDS011;48683;48.084;17.272;2023-11-19T09:24:26;14.63;;;7.78;;
62610;SDS011;48683;48.084;17.272;2023-11-19T09:26:51;9.50;;;8.02;;
62610;SDS011;48683;48.084;17.272;2023-11-19T09:29:17;10.68;;;7.78;;
62610;SDS011;48683;48.084;17.272;2023-11-19T09:31:42;10.20;;;8.02;;
62610;SDS011;48683;48.084;17.272;2023-11-19T09:34:07;10.32;;;7.65;;
62610;SDS011;48683;48.084;17.272;2023-11-19T09:36:33;9.23;;;7.00;;
62610;SDS011;48683;48.084;17.272;2023-11-19T09:38:58;9.63;;;7.65;;
62610;SDS011;48683;48.084;17.272;2023-11-19T09:41:26;10.52;;;8.20;;
62610;SDS011;48683;48.084;17.272;2023-11-19T09:43:53;10.67;;;8.23;;
62610;SDS011;48683;48.084;17.272;2023-11-19T09:46:18;12.18;;;8.73;;
62610;SDS011;48683;48.084;17.272;2023-11-19T09:48:44;11.90;;;8.27;;
62610;SDS011;48683;48.084;17.272;2023-11-19T09:51:10;9.35;;;8.27;;
62610;SDS011;48683;48.084;17.272;2023-11-19T09:53:37;11.48;;;8.13;;
62610;SDS011;48683;48.084;17.272;2023-11-19T09:56:03;9.95;;;8.07;;
62610;SDS011;48683;48.084;17.272;2023-11-19T09:58:30;11.25;;;8.88;;
62610;SDS011;48683;48.084;17.272;2023-11-19T10:00:56;10.50;;;8.25;;
62610;SDS011;48683;48.084;17.272;2023-11-19T10:03:24;12.55;;;9.63;;
62610;SDS011;48683;48.084;17.272;2023-11-19T10:05:51;9.95;;;8.32;;
62610;SDS011;48683;48.084;17.272;2023-11-19T10:08:16;10.63;;;8.32;;
62610;SDS011;48683;48.084;17.272;2023-11-19T10:10:42;11.55;;;8.68;;
62610;SDS011;48683;48.084;17.272;2023-11-19T10:13:07;10.93;;;8.23;;
62610;SDS011;48683;48.084;17.272;2023-11-19T10:15:37;12.80;;;9.32;;
62610;SDS011;48683;48.084;17.272;2023-11-19T10:18:02;11.35;;;8.63;;
62610;SDS011;48683;48.084;17.272;2023-11-19T10:20:37;11.35;;;8.60;;
62610;SDS011;48683;48.084;17.272;2023-11-19T10:23:05;12.25;;;8.88;;
62610;SDS011;48683;48.084;17.272;2023-11-19T10:25:30;10.93;;;9.20;;
62610;SDS011;48683;48.084;17.272;2023-11-19T10:27:57;10.68;;;8.90;;
62610;SDS011;48683;48.084;17.272;2023-11-19T10:30:26;10.55;;;8.73;;
62610;SDS011;48683;48.084;17.272;2023-11-19T10:33:03;11.52;;;8.27;;
62610;SDS011;48683;48.084;17.272;2023-11-19T10:35:35;12.13;;;8.50;;
62610;SDS011;48683;48.084;17.272;2023-11-19T10:38:13;10.82;;;8.07;;
62610;SDS011;48683;48.084;17.272;2023-11-19T10:40:40;13.35;;;8.77;;
62610;SDS011;48683;48.084;17.272;2023-11-19T10:43:05;11.13;;;8.45;;
62610;SDS011;48683;48.084;17.272;2023-11-19T10:45:32;11.38;;;7.78;;
62610;SDS011;48683;48.084;17.272;2023-11-19T10:47:58;11.27;;;8.52;;
62610;SDS011;48683;48.084;17.272;2023-11-19T10:50:24;11.70;;;8.80;;
62610;SDS011;48683;48.084;17.272;2023-11-19T10:52:50;10.52;;;8.18;;
62610;SDS011;48683;48.084;17.272;2023-11-19T10:55:20;11.50;;;8.77;;
62610;SDS011;48683;48.084;17.272;2023-11-19T10:58:04;11.35;;;8.63;;
62610;SDS011;48683;48.084;17.272;2023-11-19T11:03:21;12.48;;;8.57;;
62610;SDS011;48683;48.084;17.272;2023-11-19T11:05:49;10.75;;;8.50;;
62610;SDS011;48683;48.084;17.272;2023-11-19T11:08:16;10.98;;;8.80;;
62610;SDS011;48683;48.084;17.272;2023-11-19T11:10:43;10.68;;;8.68;;
62610;SDS011;48683;48.084;17.272;2023-11-19T11:13:10;10.23;;;7.60;;
62610;SDS011;48683;48.084;17.272;2023-11-19T11:15:37;12.65;;;8.63;;
62610;SDS011;48683;48.084;17.272;2023-11-19T11:18:03;10.70;;;8.52;;
62610;SDS011;48683;48.084;17.272;2023-11-19T11:20:29;10.15;;;8.18;;
62610;SDS011;48683;48.084;17.272;2023-11-19T11:25:42;10.65;;;8.25;;
62610;SDS011;48683;48.084;17.272;2023-11-19T11:28:24;10.80;;;7.72;;
62610;SDS011;48683;48.084;17.272;2023-11-19T11:36:25;11.32;;;8.27;;
62610;SDS011;48683;48.084;17.272;2023-11-19T11:38:51;14.85;;;8.75;;
62610;SDS011;48683;48.084;17.272;2023-11-19T11:41:21;10.00;;;8.73;;
62610;SDS011;48683;48.084;17.272;2023-11-19T11:43:49;12.63;;;9.23;;
62610;SDS011;48683;48.084;17.272;2023-11-19T11:49:03;11.55;;;8.93;;
62610;SDS011;48683;48.084;17.272;2023-11-19T11:54:31;20.75;;;13.35;;
62610;SDS011;48683;48.084;17.272;2023-11-19T11:57:08;21.75;;;14.60;;
62610;SDS011;48683;48.084;17.272;2023-11-19T12:02:10;20.63;;;14.63;;
62610;SDS011;48683;48.084;17.272;2023-11-19T12:04:37;18.48;;;12.65;;
62610;SDS011;48683;48.084;17.272;2023-11-19T12:07:08;15.45;;;11.10;;
62610;SDS011;48683;48.084;17.272;2023-11-19T12:09:40;13.50;;;9.18;;
62610;SDS011;48683;48.084;17.272;2023-11-19T12:12:22;12.35;;;9.60;;
62610;SDS011;48683;48.084;17.272;2023-11-19T12:15:07;13.18;;;9.35;;
62610;SDS011;48683;48.084;17.272;2023-11-19T12:17:37;72.22;;;37.65;;
62610;SDS011;48683;48.084;17.272;2023-11-19T12:20:06;38.25;;;21.05;;
62610;SDS011;48683;48.084;17.272;2023-11-19T12:22:39;38.70;;;20.35;;
62610;SDS011;48683;48.084;17.272;2023-11-19T12:25:06;16.55;;;10.27;;
62610;SDS011;48683;48.084;17.272;2023-11-19T12:27:34;18.13;;;13.48;;
62610;SDS011;48683;48.084;17.272;2023-11-19T12:30:00;14.32;;;10.45;;
62610;SDS011;48683;48.084;17.272;2023-11-19T12:32:25;16.50;;;10.15;;
62610;SDS011;48683;48.084;17.272;2023-11-19T12:34:50;11.77;;;7.85;;
62610;SDS011;48683;48.084;17.272;2023-11-19T12:37:16;11.00;;;8.70;;
62610;SDS011;48683;48.084;17.272;2023-11-19T12:39:41;18.27;;;11.82;;
62610;SDS011;48683;48.084;17.272;2023-11-19T12:42:07;17.38;;;10.07;;
62610;SDS011;48683;48.084;17.272;2023-11-19T12:44:32;25.30;;;14.63;;
62610;SDS011;48683;48.084;17.272;2023-11-19T12:47:02;22.98;;;13.88;;
62610;SDS011;48683;48.084;17.272;2023-11-19T12:49:28;32.13;;;17.98;;
62610;SDS011;48683;48.084;17.272;2023-11-19T12:51:53;31.33;;;17.63;;
62610;SDS011;48683;48.084;17.272;2023-11-19T12:54:19;40.80;;;21.70;;
62610;SDS011;48683;48.084;17.272;2023-11-19T12:56:54;20.45;;;13.55;;
62610;SDS011;48683;48.084;17.272;2023-11-19T12:59:19;14.70;;;10.07;;
62610;SDS011;48683;48.084;17.272;2023-11-19T13:01:54;13.52;;;9.63;;
62610;SDS011;48683;48.084;17.272;2023-11-19T13:04:20;19.77;;;11.77;;
62610;SDS011;48683;48.084;17.272;2023-11-19T13:06:45;14.90;;;11.05;;
62610;SDS011;48683;48.084;17.272;2023-11-19T13:09:21;17.70;;;12.55;;
62610;SDS011;48683;48.084;17.272;2023-11-19T13:11:49;13.73;;;9.45;;
62610;SDS011;48683;48.084;17.272;2023-11-19T13:14:15;14.68;;;10.32;;
62610;SDS011;48683;48.084;17.272;2023-11-19T13:16:41;15.32;;;10.85;;
62610;SDS011;48683;48.084;17.272;2023-11-19T13:19:07;12.43;;;9.50;;
62610;SDS011;48683;48.084;17.272;2023-11-19T13:21:33;13.30;;;9.20;;
62610;SDS011;48683;48.084;17.272;2023-11-19T13:23:59;13.18;;;9.73;;
62610;SDS011;48683;48.084;17.272;2023-11-19T13:26:24;11.30;;;9.18;;
62610;SDS011;48683;48.084;17.272;2023-11-19T13:28:50;12.45;;;9.40;;
62610;SDS011;48683;48.084;17.272;2023-11-19T13:31:16;33.77;;;20.43;;
62610;SDS011;48683;48.084;17.272;2023-11-19T13:33:42;19.50;;;13.82;;
62610;SDS011;48683;48.084;17.272;2023-11-19T13:36:07;19.52;;;12.93;;
62610;SDS011;48683;48.084;17.272;2023-11-19T13:38:34;17.02;;;12.73;;
62610;SDS011;48683;48.084;17.272;2023-11-19T13:41:03;13.63;;;10.38;;
62610;SDS011;48683;48.084;17.272;2023-11-19T13:43:29;14.13;;;11.13;;
62610;SDS011;48683;48.084;17.272;2023-11-19T13:45:55;13.45;;;9.93;;
62610;SDS011;48683;48.084;17.272;2023-11-19T13:48:21;12.90;;;9.60;;
62610;SDS011;48683;48.084;17.272;2023-11-19T13:50:47;15.77;;;11.13;;
62610;SDS011;48683;48.084;17.272;2023-11-19T13:53:12;11.57;;;8.70;;
62610;SDS011;48683;48.084;17.272;2023-11-19T13:55:38;13.80;;;9.93;;
62610;SDS011;48683;48.084;17.272;2023-11-19T13:58:03;13.32;;;9.82;;
62610;SDS011;48683;48.084;17.272;2023-11-19T14:00:28;15.85;;;9.32;;
62610;SDS011;48683;48.084;17.272;2023-11-19T14:02:54;13.25;;;10.40;;
62610;SDS011;48683;48.084;17.272;2023-11-19T14:05:19;13.77;;;9.93;;
62610;SDS011;48683;48.084;17.272;2023-11-19T14:07:45;12.82;;;9.55;;
62610;SDS011;48683;48.084;17.272;2023-11-19T14:10:13;13.80;;;9.00;;
62610;SDS011;48683;48.084;17.272;2023-11-19T14:12:40;21.53;;;11.40;;
62610;SDS011;48683;48.084;17.272;2023-11-19T14:15:06;28.60;;;16.70;;
62610;SDS011;48683;48.084;17.272;2023-11-19T14:17:33;16.30;;;10.90;;
62610;SDS011;48683;48.084;17.272;2023-11-19T14:20:01;18.92;;;11.57;;
62610;SDS011;48683;48.084;17.272;2023-11-19T14:22:29;16.02;;;10.35;;
62610;SDS011;48683;48.084;17.272;2023-11-19T14:24:55;13.93;;;10.57;;
62610;SDS011;48683;48.084;17.272;2023-11-19T14:27:20;13.27;;;10.27;;
62610;SDS011;48683;48.084;17.272;2023-11-19T14:29:47;18.10;;;13.20;;
62610;SDS011;48683;48.084;17.272;2023-11-19T14:32:12;17.73;;;12.50;;
62610;SDS011;48683;48.084;17.272;2023-11-19T14:34:38;15.05;;;12.10;;